createdAt,value
2019-04-27T00:00:22.886Z,19.8
2019-04-27T00:01:25.399Z,20.3
2019-04-27T00:02:27.840Z,19.9
2019-04-27T00:03:30.268Z,20.1
2019-04-27T00:04:36.207Z,20.1
2019-04-27T00:05:38.636Z,20.1
2019-04-27T00:07:46.061Z,20
2019-04-27T00:08:48.479Z,20
2019-04-27T00:10:59.690Z,19.9
2019-04-27T00:12:03.456Z,20.2
2019-04-27T00:13:06.960Z,20.2
2019-04-27T00:14:14.839Z,20.3
2019-04-27T00:15:16.080Z,19.8
2019-04-27T00:16:18.496Z,19.9
2019-04-27T00:18:25.651Z,20.2
2019-04-27T00:20:33.746Z,20.1
2019-04-27T00:21:36.182Z,20
2019-04-27T00:22:38.350Z,19.9
2019-04-27T00:23:40.488Z,20.2
2019-04-27T00:24:44.722Z,20.1
2019-04-27T00:25:47.144Z,20
2019-04-27T00:26:49.299Z,20.1
2019-04-27T00:27:53.346Z,20.3
2019-04-27T00:28:55.638Z,20.3
2019-04-27T00:29:58.071Z,20.3
2019-04-27T00:31:00.480Z,19.9
2019-04-27T00:32:04.942Z,20.1
2019-04-27T00:33:07.369Z,20
2019-04-27T00:34:09.785Z,20.1
2019-04-27T00:35:13.553Z,20.2
2019-04-27T00:36:16.129Z,20.3
2019-04-27T00:37:18.559Z,20.2
2019-04-27T00:38:20.994Z,20
2019-04-27T00:39:24.954Z,20.2
2019-04-27T00:40:27.117Z,20.2
2019-04-27T00:41:29.264Z,20
2019-04-27T00:42:31.411Z,20.3
2019-04-27T00:43:36.690Z,20
2019-04-27T00:44:38.839Z,20.3
2019-04-27T00:45:41.260Z,20.2
2019-04-27T00:46:45.063Z,20.1
2019-04-27T00:48:53.940Z,20.4
2019-04-27T00:49:56.352Z,20.2
2019-04-27T00:50:58.770Z,20.3
2019-04-27T00:52:00.897Z,20.1
2019-04-27T00:53:04.397Z,20.1
2019-04-27T00:54:06.527Z,20.2
2019-04-27T00:55:08.682Z,20.1
2019-04-27T00:56:11.100Z,20.3
2019-04-27T00:57:14.915Z,20.2
2019-04-27T00:58:17.325Z,20.1
2019-04-27T00:59:19.801Z,20
2019-04-27T01:00:23.995Z,20.2
2019-04-27T01:01:26.414Z,20.2
2019-04-27T01:02:28.555Z,20.3
2019-04-27T01:03:30.707Z,20.4
2019-04-27T01:04:34.583Z,20.3
2019-04-27T01:05:37.005Z,20.3
2019-04-27T01:06:39.417Z,20.2
2019-04-27T01:07:43.422Z,20.1
2019-04-27T01:08:45.918Z,20.4
2019-04-27T01:09:48.349Z,20
2019-04-27T01:10:50.774Z,19.9
2019-04-27T01:11:54.737Z,20.3
2019-04-27T01:12:57.159Z,20.2
2019-04-27T01:13:59.586Z,20.3
2019-04-27T01:15:03.466Z,20.3
2019-04-27T01:16:06.092Z,20
2019-04-27T01:17:14.496Z,20.2
2019-04-27T01:18:16.934Z,20.1
2019-04-27T01:19:20.941Z,20.1
2019-04-27T01:20:23.360Z,20.4
2019-04-27T01:21:25.251Z,20.1
2019-04-27T01:22:28.599Z,20.2
2019-04-27T01:23:31.124Z,20
2019-04-27T01:24:33.038Z,20.1
2019-04-27T01:25:35.435Z,20.2
2019-04-27T01:26:39.218Z,20
2019-04-27T01:27:41.333Z,19.9
2019-04-27T01:28:43.215Z,20.2
2019-04-27T01:29:45.632Z,20.2
2019-04-27T01:30:49.492Z,20
2019-04-27T01:31:51.663Z,20
2019-04-27T01:32:53.556Z,20.4
2019-04-27T01:33:55.967Z,20.4
2019-04-27T01:35:00.083Z,20.2
2019-04-27T01:36:01.959Z,20.1
2019-04-27T01:37:04.387Z,20.1
2019-04-27T01:38:06.815Z,20.2
2019-04-27T01:39:10.683Z,20.2
2019-04-27T01:40:12.842Z,20.3
2019-04-27T01:41:15.265Z,20.4
2019-04-27T01:42:16.873Z,20.2
2019-04-27T01:43:21.219Z,20.3
2019-04-27T01:44:23.633Z,20
2019-04-27T01:45:26.049Z,20.1
2019-04-27T01:46:30.473Z,20.4
2019-04-27T01:47:32.619Z,20
2019-04-27T01:48:34.493Z,20.2
2019-04-27T01:49:36.930Z,20.1
2019-04-27T01:50:41.168Z,20.3
2019-04-27T01:51:43.586Z,20.2
2019-04-27T01:52:45.999Z,20.1
2019-04-27T01:53:50.118Z,20.1
2019-04-27T01:54:51.975Z,20
2019-04-27T01:55:54.123Z,20.1
2019-04-27T01:56:56.547Z,20.2
2019-04-27T01:58:02.973Z,20.1
2019-04-27T01:59:05.121Z,20.2
2019-04-27T02:00:08.778Z,20
2019-04-27T02:01:11.534Z,20.2
2019-04-27T02:02:13.953Z,20.3
2019-04-27T02:03:16.379Z,20.2
2019-04-27T02:04:19.914Z,20.2
2019-04-27T02:05:22.057Z,20
2019-04-27T02:06:23.907Z,20.4
2019-04-27T02:07:25.255Z,20.1
2019-04-27T02:08:29.158Z,19.9
2019-04-27T02:09:31.594Z,20.2
2019-04-27T02:10:34.012Z,20
2019-04-27T02:11:36.434Z,20.3
2019-04-27T02:12:40.542Z,20.3
2019-04-27T02:13:46.483Z,20.1
2019-04-27T02:14:52.014Z,20.1
2019-04-27T02:15:54.444Z,20.1
2019-04-27T02:16:56.324Z,20
2019-04-27T02:18:00.470Z,20.2
2019-04-27T02:19:02.364Z,20
2019-04-27T02:20:04.787Z,20
2019-04-27T02:21:06.923Z,20.2
2019-04-27T02:22:10.742Z,20.3
2019-04-27T02:23:12.893Z,20.3
2019-04-27T02:24:15.303Z,20.2
2019-04-27T02:25:18.892Z,20.1
2019-04-27T02:26:23.170Z,20.4
2019-04-27T02:27:25.298Z,19.9
2019-04-27T02:28:27.434Z,20.2
2019-04-27T02:29:31.472Z,20.3
2019-04-27T02:30:33.902Z,20.1
2019-04-27T02:31:36.317Z,20.1
2019-04-27T02:32:42.732Z,20.1
2019-04-27T02:33:45.165Z,20.3
2019-04-27T02:34:50.152Z,20.2
2019-04-27T02:35:53.054Z,20.1
2019-04-27T02:36:54.650Z,19.9
2019-04-27T02:37:57.092Z,20.2
2019-04-27T02:39:03.033Z,20.1
2019-04-27T02:40:05.449Z,19.9
2019-04-27T02:42:12.314Z,19.9
2019-04-27T02:43:14.767Z,20.4
2019-04-27T02:44:16.636Z,20.1
2019-04-27T02:45:23.046Z,20.3
2019-04-27T02:46:25.476Z,20.1
2019-04-27T02:47:32.369Z,20.3
2019-04-27T02:48:51.783Z,20.4
2019-04-27T02:49:41.154Z,20
2019-04-27T02:50:43.575Z,20.3
2019-04-27T02:51:45.740Z,20.1
2019-04-27T02:52:52.154Z,20.3
2019-04-27T02:53:54.579Z,20
2019-04-27T02:56:02.023Z,20.2
2019-04-27T02:57:04.445Z,19.9
2019-04-27T02:58:06.598Z,19.9
2019-04-27T02:59:13.021Z,20.1
2019-04-27T03:00:15.486Z,20.3
2019-04-27T03:01:19.753Z,20.3
2019-04-27T03:02:22.813Z,20.3
2019-04-27T03:03:25.273Z,20.1
2019-04-27T03:04:27.146Z,20.2
2019-04-27T03:05:32.822Z,20.2
2019-04-27T03:06:35.256Z,20.1
2019-04-27T03:07:37.454Z,20.2
2019-04-27T03:08:43.417Z,20.2
2019-04-27T03:09:45.841Z,20.1
2019-04-27T03:11:53.269Z,20
2019-04-27T03:12:55.687Z,20.3
2019-04-27T03:15:02.580Z,20.3
2019-04-27T03:16:05.000Z,19.8
2019-04-27T03:17:09.675Z,19.8
2019-04-27T03:18:12.606Z,19.9
2019-04-27T03:20:20.846Z,19.9
2019-04-27T03:21:23.296Z,20
2019-04-27T03:22:25.716Z,20
2019-04-27T03:23:32.613Z,20
2019-04-27T03:24:34.757Z,19.8
2019-04-27T03:25:37.183Z,20
2019-04-27T03:26:43.127Z,20.1
2019-04-27T03:27:45.250Z,20.1
2019-04-27T03:28:49.962Z,19.9
2019-04-27T03:29:53.135Z,20.3
2019-04-27T03:30:54.986Z,19.8
2019-04-27T03:32:01.554Z,20.2
2019-04-27T03:33:04.045Z,20
2019-04-27T03:34:11.798Z,20
2019-04-27T03:35:14.161Z,19.9
2019-04-27T03:36:20.997Z,19.9
2019-04-27T03:37:21.838Z,19.8
2019-04-27T03:38:23.422Z,19.8
2019-04-27T03:39:25.544Z,19.9
2019-04-27T03:41:32.945Z,20.1
2019-04-27T03:43:40.880Z,20
2019-04-27T03:44:43.302Z,20
2019-04-27T03:45:45.739Z,20
2019-04-27T03:46:52.637Z,20.1
2019-04-27T03:47:54.796Z,20
2019-04-27T03:48:56.405Z,19.8
2019-04-27T03:50:02.353Z,19.8
2019-04-27T03:51:04.805Z,19.8
2019-04-27T03:52:09.472Z,19.9
2019-04-27T03:53:12.413Z,19.9
2019-04-27T03:54:14.844Z,19.7
2019-04-27T03:55:19.358Z,19.8
2019-04-27T03:56:22.467Z,19.8
2019-04-27T03:57:24.612Z,19.8
2019-04-27T03:58:26.753Z,20
2019-04-27T03:59:33.283Z,20.1
2019-04-27T04:00:35.454Z,19.8
2019-04-27T04:02:42.601Z,20
2019-04-27T04:03:44.750Z,20
2019-04-27T04:04:47.193Z,20
2019-04-27T04:05:53.148Z,19.9
2019-04-27T04:06:55.104Z,20
2019-04-27T04:07:57.532Z,20.1
2019-04-27T04:09:03.206Z,20
2019-04-27T04:10:05.634Z,19.9
2019-04-27T04:12:13.043Z,19.8
2019-04-27T04:13:15.467Z,19.9
2019-04-27T04:14:19.995Z,19.7
2019-04-27T04:15:23.074Z,19.8
2019-04-27T04:16:25.499Z,20.1
2019-04-27T04:17:32.133Z,20
2019-04-27T04:18:34.574Z,19.7
2019-04-27T04:20:41.440Z,20.1
2019-04-27T04:21:43.893Z,19.9
2019-04-27T04:22:46.344Z,19.9
2019-04-27T04:23:50.011Z,19.6
2019-04-27T04:24:52.431Z,20
2019-04-27T04:25:54.603Z,19.9
2019-04-27T04:26:56.752Z,20
2019-04-27T04:28:02.694Z,20.1
2019-04-27T04:29:04.554Z,19.7
2019-04-27T04:30:06.717Z,19.7
2019-04-27T04:31:14.379Z,19.9
2019-04-27T04:32:18.979Z,19.9
2019-04-27T04:33:22.270Z,19.9
2019-04-27T04:34:24.431Z,19.8
2019-04-27T04:35:26.856Z,19.9
2019-04-27T04:36:33.477Z,19.8
2019-04-27T04:37:35.903Z,19.8
2019-04-27T04:38:42.524Z,19.9
2019-04-27T04:39:44.955Z,19.8
2019-04-27T04:40:51.387Z,19.9
2019-04-27T04:41:53.812Z,19.9
2019-04-27T04:42:56.233Z,19.6
2019-04-27T04:44:03.123Z,19.8
2019-04-27T04:45:05.550Z,19.6
2019-04-27T04:47:12.688Z,19.7
2019-04-27T04:48:15.104Z,19.9
2019-04-27T04:49:19.195Z,19.8
2019-04-27T04:50:23.062Z,19.7
2019-04-27T04:51:25.494Z,19.7
2019-04-27T04:52:30.042Z,19.9
2019-04-27T04:53:32.452Z,19.8
2019-04-27T04:54:34.880Z,19.7
2019-04-27T04:56:42.282Z,19.6
2019-04-27T04:57:44.449Z,20
2019-04-27T04:58:46.884Z,19.8
2019-04-27T04:59:52.553Z,19.8
2019-04-27T05:00:54.985Z,19.8
2019-04-27T05:01:57.415Z,19.9
2019-04-27T05:03:03.080Z,19.6
2019-04-27T05:04:05.497Z,20
2019-04-27T05:05:09.810Z,19.6
2019-04-27T05:06:11.973Z,19.7
2019-04-27T05:07:14.405Z,19.9
2019-04-27T05:08:16.548Z,19.7
2019-04-27T05:09:20.716Z,19.7
2019-04-27T05:10:22.875Z,19.8
2019-04-27T05:11:25.285Z,19.9
2019-04-27T05:12:29.230Z,19.7
2019-04-27T05:13:31.099Z,19.6
2019-04-27T05:14:33.528Z,19.6
2019-04-27T05:15:35.680Z,19.6
2019-04-27T05:16:39.606Z,19.7
2019-04-27T05:17:42.032Z,19.7
2019-04-27T05:18:44.453Z,19.6
2019-04-27T05:19:46.057Z,19.8
2019-04-27T05:20:50.105Z,19.6
2019-04-27T05:21:52.541Z,19.8
2019-04-27T05:22:54.411Z,19.7
2019-04-27T05:23:56.842Z,19.6
2019-04-27T05:25:02.788Z,19.8
2019-04-27T05:26:04.946Z,19.7
2019-04-27T05:27:09.029Z,19.7
2019-04-27T05:28:11.669Z,19.7
2019-04-27T05:29:14.092Z,19.7
2019-04-27T05:30:16.238Z,19.9
2019-04-27T05:31:19.976Z,19.5
2019-04-27T05:32:21.832Z,19.6
2019-04-27T05:33:24.292Z,19.7
2019-04-27T05:34:26.487Z,19.8
2019-04-27T05:35:30.826Z,19.5
2019-04-27T05:36:32.972Z,19.8
2019-04-27T05:37:35.388Z,19.7
2019-04-27T05:39:44.928Z,19.7
2019-04-27T05:40:47.371Z,19.8
2019-04-27T05:41:51.230Z,19.8
2019-04-27T05:44:03.137Z,19.5
2019-04-27T05:45:05.367Z,19.6
2019-04-27T05:47:13.760Z,19.6
2019-04-27T05:48:15.964Z,19.6
2019-04-27T05:49:20.634Z,19.5
2019-04-27T05:52:33.114Z,19.7
2019-04-27T05:53:35.262Z,19.6
2019-04-27T05:54:39.118Z,19.5
2019-04-27T05:55:41.264Z,19.5
2019-04-27T05:56:43.406Z,19.4
2019-04-27T05:57:45.554Z,19.6
2019-04-27T05:59:52.694Z,19.7
2019-04-27T06:00:54.849Z,19.7
2019-04-27T06:01:59.058Z,19.8
2019-04-27T06:03:01.452Z,19.6
2019-04-27T06:04:03.893Z,19.6
2019-04-27T06:05:06.049Z,19.7
2019-04-27T06:06:10.042Z,19.6
2019-04-27T06:07:12.206Z,19.7
2019-04-27T06:08:14.345Z,19.9
2019-04-27T06:09:16.215Z,19.7
2019-04-27T06:10:20.418Z,19.8
2019-04-27T06:11:22.844Z,19.5
2019-04-27T06:12:25.274Z,19.5
2019-04-27T06:14:32.392Z,19.8
2019-04-27T06:15:34.538Z,19.7
2019-04-27T06:16:36.698Z,19.5
2019-04-27T06:17:40.829Z,19.6
2019-04-27T06:18:43.444Z,19.4
2019-04-27T06:19:45.884Z,19.7
2019-04-27T06:21:52.804Z,19.7
2019-04-27T06:22:55.496Z,19.5
2019-04-27T06:23:59.793Z,19.5
2019-04-27T06:25:01.661Z,19.5
2019-04-27T06:26:04.079Z,19.6
2019-04-27T06:27:06.233Z,19.7
2019-04-27T06:28:10.099Z,19.5
2019-04-27T06:29:11.990Z,19.7
2019-04-27T06:30:14.145Z,19.7
2019-04-27T06:31:16.287Z,19.6
2019-04-27T06:32:20.547Z,19.7
2019-04-27T06:35:33.776Z,19.6
2019-04-27T06:36:35.928Z,19.5
2019-04-27T06:37:39.629Z,19.6
2019-04-27T06:38:41.768Z,19.6
2019-04-27T06:39:44.193Z,19.5
2019-04-27T06:40:46.346Z,19.5
2019-04-27T06:41:49.693Z,19.7
2019-04-27T06:42:52.129Z,19.5
2019-04-27T06:43:55.011Z,19.5
2019-04-27T06:44:57.176Z,19.6
2019-04-27T06:46:01.788Z,19.6
2019-04-27T06:47:04.379Z,19.6
2019-04-27T06:48:06.541Z,19.8
2019-04-27T06:49:11.653Z,19.5
2019-04-27T06:50:14.138Z,19.5
2019-04-27T06:51:16.563Z,19.7
2019-04-27T06:52:20.295Z,19.4
2019-04-27T06:53:22.711Z,19.6
2019-04-27T06:54:25.339Z,19.7
2019-04-27T06:55:29.102Z,19.6
2019-04-27T06:56:31.717Z,19.6
2019-04-27T06:57:34.961Z,19.8
2019-04-27T06:59:42.361Z,19.8
2019-04-27T07:00:44.631Z,19.7
2019-04-27T07:01:48.625Z,19.5
2019-04-27T07:02:51.263Z,19.5
2019-04-27T07:03:57.693Z,19.7
2019-04-27T07:05:01.809Z,19.4
2019-04-27T07:06:04.179Z,19.5
2019-04-27T07:07:06.312Z,19.6
2019-04-27T07:08:10.843Z,19.5
2019-04-27T07:09:12.715Z,19.7
2019-04-27T07:10:16.340Z,19.7
2019-04-27T07:11:22.570Z,19.7
2019-04-27T07:12:29.303Z,19.8
2019-04-27T07:13:31.741Z,19.7
2019-04-27T07:14:33.947Z,19.5
2019-04-27T07:15:36.093Z,19.6
2019-04-27T07:16:40.218Z,19.7
2019-04-27T07:17:42.361Z,19.7
2019-04-27T07:18:44.883Z,19.6
2019-04-27T07:19:47.303Z,19.4
2019-04-27T07:20:51.072Z,19.5
2019-04-27T07:21:53.569Z,19.6
2019-04-27T07:22:56.013Z,19.6
2019-04-27T07:24:00.191Z,19.8
2019-04-27T07:25:02.275Z,19.6
2019-04-27T07:26:04.711Z,19.7
2019-04-27T07:27:06.887Z,19.7
2019-04-27T07:28:10.833Z,19.6
2019-04-27T07:29:13.303Z,19.7
2019-04-27T07:30:15.729Z,19.7
2019-04-27T07:31:19.851Z,19.5
2019-04-27T07:32:22.011Z,19.7
2019-04-27T07:33:24.753Z,19.6
2019-04-27T07:34:28.598Z,19.6
2019-04-27T07:35:32.368Z,19.5
2019-04-27T07:36:34.796Z,19.5
2019-04-27T07:37:37.221Z,19.7
2019-04-27T07:38:41.242Z,19.6
2019-04-27T07:39:43.774Z,19.5
2019-04-27T07:40:45.949Z,19.7
2019-04-27T07:41:51.332Z,19.6
2019-04-27T07:42:57.083Z,19.6
2019-04-27T07:44:04.441Z,19.7
2019-04-27T07:45:13.435Z,19.7
2019-04-27T07:46:19.302Z,19.6
2019-04-27T07:47:25.599Z,19.7
2019-04-27T07:48:34.351Z,19.8
2019-04-27T07:49:40.438Z,19.5
2019-04-27T07:50:45.964Z,19.7
2019-04-27T07:51:52.117Z,19.6
2019-04-27T07:52:54.667Z,19.7
2019-04-27T07:53:58.707Z,19.6
2019-04-27T07:55:01.471Z,19.7
2019-04-27T07:56:04.059Z,19.4
2019-04-27T07:57:05.987Z,19.7
2019-04-27T07:58:09.545Z,19.8
2019-04-27T07:59:11.699Z,19.6
2019-04-27T08:00:14.287Z,19.6
2019-04-27T08:01:16.157Z,19.4
2019-04-27T08:02:20.246Z,19.6
2019-04-27T08:03:22.672Z,19.7
2019-04-27T08:04:25.709Z,19.6
2019-04-27T08:05:30.636Z,19.8
2019-04-27T08:06:33.052Z,19.8
2019-04-27T08:07:35.302Z,19.6
2019-04-27T08:08:39.474Z,19.6
2019-04-27T08:09:42.023Z,19.5
2019-04-27T08:10:44.162Z,19.5
2019-04-27T08:11:50.100Z,19.8
2019-04-27T08:12:52.247Z,19.4
2019-04-27T08:13:54.819Z,19.5
2019-04-27T08:14:57.423Z,19.5
2019-04-27T08:16:01.512Z,19.3
2019-04-27T08:17:03.938Z,19.5
2019-04-27T08:18:05.989Z,19.4
2019-04-27T08:19:10.516Z,19.6
2019-04-27T08:20:12.944Z,19.8
2019-04-27T08:21:15.160Z,19.6
2019-04-27T08:22:19.068Z,19.6
2019-04-27T08:23:21.518Z,19.7
2019-04-27T08:24:23.940Z,19.6
2019-04-27T08:25:26.412Z,19.8
2019-04-27T08:26:32.882Z,19.7
2019-04-27T08:27:35.044Z,19.7
2019-04-27T08:28:39.105Z,19.6
2019-04-27T08:29:41.446Z,19.5
2019-04-27T08:30:43.862Z,19.6
2019-04-27T08:31:46.179Z,19.6
2019-04-27T08:32:50.523Z,19.7
2019-04-27T08:33:52.406Z,19.7
2019-04-27T08:34:54.840Z,19.6
2019-04-27T08:35:58.866Z,19.5
2019-04-27T08:37:01.643Z,19.8
2019-04-27T08:38:04.069Z,19.8
2019-04-27T08:39:06.496Z,19.5
2019-04-27T08:40:10.928Z,19.7
2019-04-27T08:41:12.781Z,19.8
2019-04-27T08:42:14.930Z,19.7
2019-04-27T08:43:19.553Z,19.5
2019-04-27T08:44:22.231Z,19.7
2019-04-27T08:45:24.399Z,19.7
2019-04-27T08:46:28.599Z,19.6
2019-04-27T08:47:31.195Z,19.6
2019-04-27T08:49:39.974Z,19.6
2019-04-27T08:50:42.821Z,19.6
2019-04-27T08:52:51.151Z,19.8
2019-04-27T08:53:53.580Z,19.5
2019-04-27T08:54:55.189Z,19.7
2019-04-27T08:55:59.390Z,19.7
2019-04-27T08:57:02.297Z,19.6
2019-04-27T08:58:04.423Z,19.7
2019-04-27T08:59:06.578Z,19.6
2019-04-27T09:00:10.565Z,19.7
2019-04-27T09:01:12.497Z,19.8
2019-04-27T09:02:14.365Z,19.5
2019-04-27T09:03:16.791Z,19.7
2019-04-27T09:04:20.879Z,19.6
2019-04-27T09:05:23.424Z,19.6
2019-04-27T09:06:25.851Z,19.6
2019-04-27T09:07:32.905Z,19.7
2019-04-27T09:08:34.833Z,19.6
2019-04-27T09:09:37.303Z,19.6
2019-04-27T09:10:42.022Z,19.4
2019-04-27T09:11:44.566Z,19.6
2019-04-27T09:12:47.240Z,19.6
2019-04-27T09:13:53.674Z,19.7
2019-04-27T09:14:56.200Z,19.8
2019-04-27T09:16:00.626Z,19.6
2019-04-27T09:17:03.630Z,19.7
2019-04-27T09:18:05.822Z,19.7
2019-04-27T09:19:10.015Z,19.5
2019-04-27T09:20:12.523Z,19.5
2019-04-27T09:21:14.953Z,19.8
2019-04-27T09:23:22.267Z,19.6
2019-04-27T09:24:24.753Z,19.5
2019-04-27T09:25:26.625Z,19.7
2019-04-27T09:26:31.027Z,19.6
2019-04-27T09:27:33.672Z,19.7
2019-04-27T09:28:35.833Z,19.6
2019-04-27T09:29:39.992Z,19.4
2019-04-27T09:30:42.662Z,19.6
2019-04-27T09:31:45.103Z,19.5
2019-04-27T09:32:46.987Z,19.8
2019-04-27T09:33:49.410Z,19.8
2019-04-27T09:34:51.542Z,19.7
2019-04-27T09:35:53.978Z,19.4
2019-04-27T09:36:58.190Z,19.6
2019-04-27T09:38:00.629Z,19.6
2019-04-27T09:39:03.065Z,19.6
2019-04-27T09:40:08.193Z,19.7
2019-04-27T09:41:10.663Z,19.4
2019-04-27T09:42:13.332Z,19.4
2019-04-27T09:43:16.300Z,19.8
2019-04-27T09:44:18.561Z,19.4
2019-04-27T09:45:20.983Z,19.6
2019-04-27T09:46:23.293Z,19.7
2019-04-27T09:47:27.702Z,19.7
2019-04-27T09:48:29.848Z,19.6
2019-04-27T09:49:32.273Z,19.6
2019-04-27T09:51:39.678Z,19.6
2019-04-27T09:52:41.994Z,19.5
2019-04-27T09:53:46.259Z,19.6
2019-04-27T09:54:48.792Z,19.6
2019-04-27T09:55:51.225Z,19.8
2019-04-27T09:56:53.627Z,19.5
2019-04-27T09:57:57.769Z,19.8
2019-04-27T09:58:59.913Z,19.5
2019-04-27T10:00:01.509Z,19.6
2019-04-27T10:01:03.747Z,19.4
2019-04-27T10:02:09.147Z,19.6
2019-04-27T10:03:10.792Z,19.5
2019-04-27T10:04:13.018Z,19.6
2019-04-27T10:05:19.535Z,19.5
2019-04-27T10:06:21.701Z,19.5
2019-04-27T10:07:24.174Z,19.6
2019-04-27T10:08:29.213Z,19.5
2019-04-27T10:09:31.364Z,19.6
2019-04-27T10:10:33.864Z,19.4
2019-04-27T10:11:37.861Z,19.4
2019-04-27T10:12:39.759Z,19.6
2019-04-27T10:13:41.393Z,19.4
2019-04-27T10:15:49.213Z,19.5
2019-04-27T10:16:51.654Z,19.5
2019-04-27T10:17:57.554Z,19.5
2019-04-27T10:19:00.064Z,19.6
2019-04-27T10:20:02.261Z,19.6
2019-04-27T10:21:06.135Z,19.6
2019-04-27T10:22:08.879Z,19.6
2019-04-27T10:23:11.426Z,19.4
2019-04-27T10:24:16.066Z,19.6
2019-04-27T10:25:18.563Z,19.7
2019-04-27T10:26:20.412Z,19.6
2019-04-27T10:27:22.893Z,19.6
2019-04-27T10:28:27.132Z,19.5
2019-04-27T10:29:29.021Z,19.6
2019-04-27T10:30:30.623Z,19.6
2019-04-27T10:31:33.143Z,19.3
2019-04-27T10:32:36.671Z,19.6
2019-04-27T10:33:38.878Z,19.5
2019-04-27T10:34:41.034Z,19.5
2019-04-27T10:35:42.734Z,19.5
2019-04-27T10:36:46.671Z,19.6
2019-04-27T10:37:49.814Z,19.7
2019-04-27T10:38:52.264Z,19.6
2019-04-27T10:39:56.617Z,19.6
2019-04-27T10:40:59.144Z,19.7
2019-04-27T10:42:01.323Z,19.7
2019-04-27T10:43:03.810Z,19.7
2019-04-27T10:44:08.061Z,19.7
2019-04-27T10:45:10.211Z,19.6
2019-04-27T10:46:12.374Z,19.5
2019-04-27T10:47:16.308Z,19.4
2019-04-27T10:48:18.605Z,19.8
2019-04-27T10:49:21.018Z,19.6
2019-04-27T10:50:23.451Z,19.4
2019-04-27T10:51:27.946Z,19.6
2019-04-27T10:52:30.114Z,19.5
2019-04-27T10:53:32.539Z,19.4
2019-04-27T10:54:36.613Z,19.5
2019-04-27T10:55:38.775Z,19.5
2019-04-27T10:56:41.334Z,19.7
2019-04-27T10:57:43.805Z,19.5
2019-04-27T10:58:46.293Z,19.8
2019-04-27T10:59:48.549Z,19.6
2019-04-27T11:00:50.693Z,19.5
2019-04-27T11:01:52.853Z,19.5
2019-04-27T11:02:58.937Z,19.5
2019-04-27T11:04:01.371Z,19.7
2019-04-27T11:05:03.638Z,19.6
2019-04-27T11:06:07.782Z,19.6
2019-04-27T11:07:09.657Z,19.5
2019-04-27T11:08:11.836Z,19.4
2019-04-27T11:09:13.685Z,19.6
2019-04-27T11:10:18.264Z,19.5
2019-04-27T11:11:20.681Z,19.6
2019-04-27T11:12:22.543Z,19.6
2019-04-27T11:13:26.313Z,19.6
2019-04-27T11:14:28.459Z,19.6
2019-04-27T11:15:30.891Z,19.5
2019-04-27T11:16:33.036Z,19.6
2019-04-27T11:17:39.479Z,19.6
2019-04-27T11:18:41.972Z,19.5
2019-04-27T11:19:46.467Z,19.5
2019-04-27T11:20:48.894Z,19.5
2019-04-27T11:21:50.769Z,19.4
2019-04-27T11:23:00.702Z,19.6
2019-04-27T11:23:58.717Z,19.5
2019-04-27T11:25:01.213Z,19.5
2019-04-27T11:26:03.672Z,19.5
2019-04-27T11:27:09.629Z,19.6
2019-04-27T11:28:11.525Z,19.6
2019-04-27T11:29:13.961Z,19.5
2019-04-27T11:30:16.175Z,19.5
2019-04-27T11:31:18.615Z,19.5
2019-04-27T11:32:21.039Z,19.6
2019-04-27T11:33:22.921Z,19.5
2019-04-27T11:34:25.082Z,19.8
2019-04-27T11:35:26.666Z,19.5
2019-04-27T11:36:29.102Z,19.8
2019-04-27T11:37:31.252Z,19.5
2019-04-27T11:38:33.701Z,19.8
2019-04-27T11:39:37.504Z,19.7
2019-04-27T11:40:39.923Z,19.7
2019-04-27T11:41:42.077Z,19.8
2019-04-27T11:42:43.963Z,19.6
2019-04-27T11:43:46.970Z,19.6
2019-04-27T11:44:49.422Z,19.8
2019-04-27T11:45:51.852Z,19.7
2019-04-27T11:46:55.881Z,19.9
2019-04-27T11:47:58.368Z,19.8
2019-04-27T11:49:00.525Z,19.9
2019-04-27T11:50:02.673Z,19.7
2019-04-27T11:51:06.833Z,19.7
2019-04-27T11:52:13.374Z,19.9
2019-04-27T11:54:22.375Z,19.9
2019-04-27T11:55:24.007Z,19.8
2019-04-27T11:56:28.294Z,19.7
2019-04-27T11:57:30.729Z,19.8
2019-04-27T11:59:37.849Z,20.1
2019-04-27T12:00:40.302Z,19.8
2019-04-27T12:01:42.453Z,20.2
2019-04-27T12:02:46.195Z,19.7
2019-04-27T12:03:48.359Z,19.9
2019-04-27T12:04:50.800Z,20.1
2019-04-27T12:05:52.954Z,20
2019-04-27T12:06:56.930Z,19.9
2019-04-27T12:07:59.367Z,20.2
2019-04-27T12:09:01.798Z,19.8
2019-04-27T12:10:05.286Z,19.9
2019-04-27T12:11:08.108Z,20.3
2019-04-27T12:13:16.456Z,19.8
2019-04-27T12:14:18.893Z,19.9
2019-04-27T12:15:21.031Z,19.9
2019-04-27T12:16:23.488Z,19.9
2019-04-27T12:17:29.512Z,20
2019-04-27T12:18:31.713Z,20
2019-04-27T12:19:35.224Z,20.1
2019-04-27T12:20:38.035Z,20.1
2019-04-27T12:21:39.639Z,19.8
2019-04-27T12:22:41.801Z,20
2019-04-27T12:23:44.266Z,19.9
2019-04-27T12:24:47.942Z,19.9
2019-04-27T12:25:50.380Z,19.9
2019-04-27T12:26:52.532Z,20.2
2019-04-27T12:27:59.171Z,20.3
2019-04-27T12:29:01.334Z,20.2
2019-04-27T12:30:03.513Z,20.1
2019-04-27T12:31:09.540Z,19.9
2019-04-27T12:32:11.997Z,20.1
2019-04-27T12:33:14.417Z,19.9
2019-04-27T12:34:16.857Z,20.1
2019-04-27T12:35:18.978Z,20.3
2019-04-27T12:36:21.399Z,20
2019-04-27T12:37:23.831Z,20.1
2019-04-27T12:38:28.844Z,20.3
2019-04-27T12:39:31.276Z,20
2019-04-27T12:40:33.704Z,20
2019-04-27T12:41:38.059Z,20.3
2019-04-27T12:42:40.533Z,20.2
2019-04-27T12:43:43.025Z,20.1
2019-04-27T12:44:47.394Z,20
2019-04-27T12:45:49.574Z,20.3
2019-04-27T12:46:52.041Z,20.3
2019-04-27T12:47:56.347Z,20
2019-04-27T12:48:58.969Z,20.2
2019-04-27T12:50:01.402Z,19.9
2019-04-27T12:51:03.315Z,20.2
2019-04-27T12:52:06.118Z,20.2
2019-04-27T12:53:08.543Z,20.4
2019-04-27T12:54:10.980Z,20.3
2019-04-27T12:55:13.403Z,20.5
2019-04-27T12:56:19.344Z,20.3
2019-04-27T12:57:21.792Z,20.2
2019-04-27T12:58:24.223Z,20.5
2019-04-27T12:59:27.910Z,20.4
2019-04-27T13:00:30.372Z,20.2
2019-04-27T13:01:32.822Z,20.1
2019-04-27T13:02:37.053Z,20.4
2019-04-27T13:03:39.471Z,20.5
2019-04-27T13:04:41.625Z,20.2
2019-04-27T13:05:43.753Z,20.2
2019-04-27T13:06:47.588Z,20.3
2019-04-27T13:07:50.074Z,20.2
2019-04-27T13:08:52.264Z,20.4
2019-04-27T13:09:56.942Z,20.4
2019-04-27T13:10:59.112Z,20.4
2019-04-27T13:12:00.971Z,20.3
2019-04-27T13:13:03.406Z,20.3
2019-04-27T13:14:07.741Z,20.4
2019-04-27T13:15:10.174Z,20.5
2019-04-27T13:16:12.601Z,20.5
2019-04-27T13:17:16.881Z,20.4
2019-04-27T13:18:19.062Z,20.3
2019-04-27T13:19:21.483Z,20.6
2019-04-27T13:20:25.465Z,20.3
2019-04-27T13:21:28.030Z,20.4
2019-04-27T13:22:30.191Z,20.4
2019-04-27T13:23:32.635Z,20.4
2019-04-27T13:24:36.261Z,20.4
2019-04-27T13:25:39.071Z,20.4
2019-04-27T13:26:41.297Z,20.3
2019-04-27T13:27:43.758Z,20.4
2019-04-27T13:28:47.252Z,20.3
2019-04-27T13:29:49.136Z,20.4
2019-04-27T13:30:51.571Z,20.5
2019-04-27T13:31:55.691Z,20.5
2019-04-27T13:32:59.497Z,20.4
2019-04-27T13:34:03.295Z,20.4
2019-04-27T13:35:07.705Z,20.4
2019-04-27T13:36:10.141Z,20.4
2019-04-27T13:37:12.584Z,20.3
2019-04-27T13:38:18.489Z,20.4
2019-04-27T13:39:21.002Z,20.2
2019-04-27T13:40:22.954Z,20.2
2019-04-27T13:42:31.916Z,20.2
2019-04-27T13:43:34.353Z,20.4
2019-04-27T13:44:36.244Z,20.6
2019-04-27T13:45:38.706Z,20.5
2019-04-27T13:46:40.612Z,20.4
2019-04-27T13:47:42.781Z,20.3
2019-04-27T13:48:46.549Z,20.4
2019-04-27T13:49:48.885Z,20.4
2019-04-27T13:50:50.545Z,20.4
2019-04-27T13:51:53.024Z,20.4
2019-04-27T13:52:58.574Z,20.2
2019-04-27T13:54:00.745Z,20.5
2019-04-27T13:55:06.703Z,20.3
2019-04-27T13:56:08.318Z,20.6
2019-04-27T13:57:10.492Z,20.3
2019-04-27T13:58:12.947Z,20.3
2019-04-27T13:59:15.654Z,20
2019-04-27T14:00:18.106Z,20.4
2019-04-27T14:01:20.554Z,20.2
2019-04-27T14:03:27.967Z,20.3
2019-04-27T14:04:30.394Z,20
2019-04-27T14:05:32.834Z,20.3
2019-04-27T14:06:34.991Z,20.3
2019-04-27T14:07:40.530Z,20.4
2019-04-27T14:08:42.671Z,20.3
2019-04-27T14:09:44.541Z,20.3
2019-04-27T14:10:46.485Z,20.4
2019-04-27T14:11:48.908Z,20.4
2019-04-27T14:12:51.448Z,20.6
2019-04-27T14:13:53.886Z,20.3
2019-04-27T14:14:56.318Z,20.2
2019-04-27T14:16:00.561Z,20.2
2019-04-27T14:17:02.712Z,20.1
2019-04-27T14:18:04.874Z,20.4
2019-04-27T14:20:14.110Z,20.3
2019-04-27T14:21:16.271Z,20.4
2019-04-27T14:22:18.842Z,20.1
2019-04-27T14:23:21.290Z,20.2
2019-04-27T14:25:28.460Z,20.4
2019-04-27T14:26:30.892Z,20.4
2019-04-27T14:27:33.320Z,20.4
2019-04-27T14:28:39.263Z,20.4
2019-04-27T14:29:41.422Z,20.4
2019-04-27T14:30:43.864Z,20.4
2019-04-27T14:31:47.807Z,20.3
2019-04-27T14:32:51.513Z,20.3
2019-04-27T14:33:54.230Z,20.5
2019-04-27T14:34:56.827Z,20.5
2019-04-27T14:36:00.925Z,20.2
2019-04-27T14:37:03.364Z,20.4
2019-04-27T14:38:05.803Z,20.3
2019-04-27T14:39:10.110Z,20.5
2019-04-27T14:40:12.273Z,20.4
2019-04-27T14:41:14.702Z,20.2
2019-04-27T14:42:16.862Z,20.4
2019-04-27T14:43:21.185Z,20.4
2019-04-27T14:44:23.679Z,20.4
2019-04-27T14:45:26.303Z,20.5
2019-04-27T14:46:31.057Z,20.4